Terminal Aerodrome Forecast
Issued by NWS

Home | Current Version | Previous Version | Graphics & Text | Print | Product List | Glossary On
Versions: 1 2 3 4 5 6 7 8 9 10 11 12 13 14 15 16
000
FTUS43 KMPX 201100
TAFRNH
TAF
KRNH 201120Z 2012/2112 17007KT 6SM BR BKN015 OVC025
     FM201400 17008KT P6SM OVC015
     FM210300 16006KT 6SM BR OVC015=

USA.gov is the U.S. government's official web portal to all federal, state and local government web resources and services.